sensor_id;sensor_type;location;lat;lon;timestamp;P1;durP1;ratioP1;P2;durP2;ratioP2
53040;SDS011;39326;42.650;23.248;2023-03-14T00:01:09;7.80;;;7.00;;
53040;SDS011;39326;42.650;23.248;2023-03-14T00:03:41;8.83;;;6.37;;
53040;SDS011;39326;42.650;23.248;2023-03-14T00:06:07;9.03;;;6.53;;
53040;SDS011;39326;42.650;23.248;2023-03-14T00:08:34;8.40;;;6.00;;
53040;SDS011;39326;42.650;23.248;2023-03-14T00:11:07;7.77;;;6.13;;
53040;SDS011;39326;42.650;23.248;2023-03-14T00:13:37;8.03;;;7.13;;
53040;SDS011;39326;42.650;23.248;2023-03-14T00:16:06;11.20;;;6.37;;
53040;SDS011;39326;42.650;23.248;2023-03-14T00:18:36;8.40;;;7.03;;
53040;SDS011;39326;42.650;23.248;2023-03-14T00:21:02;10.87;;;8.80;;
53040;SDS011;39326;42.650;23.248;2023-03-14T00:23:29;9.20;;;8.17;;
53040;SDS011;39326;42.650;23.248;2023-03-14T00:26:03;10.03;;;8.60;;
53040;SDS011;39326;42.650;23.248;2023-03-14T00:28:31;10.63;;;8.50;;
53040;SDS011;39326;42.650;23.248;2023-03-14T00:30:57;9.90;;;8.50;;
53040;SDS011;39326;42.650;23.248;2023-03-14T00:33:23;9.40;;;8.33;;
53040;SDS011;39326;42.650;23.248;2023-03-14T00:36:08;11.63;;;9.10;;
53040;SDS011;39326;42.650;23.248;2023-03-14T00:38:35;10.60;;;9.07;;
53040;SDS011;39326;42.650;23.248;2023-03-14T00:41:06;11.20;;;9.23;;
53040;SDS011;39326;42.650;23.248;2023-03-14T00:43:33;11.17;;;9.97;;
53040;SDS011;39326;42.650;23.248;2023-03-14T00:45:59;13.03;;;11.50;;
53040;SDS011;39326;42.650;23.248;2023-03-14T00:48:25;12.83;;;11.47;;
53040;SDS011;39326;42.650;23.248;2023-03-14T00:50:50;13.77;;;11.60;;
53040;SDS011;39326;42.650;23.248;2023-03-14T00:53:15;12.03;;;10.37;;
53040;SDS011;39326;42.650;23.248;2023-03-14T00:55:41;13.43;;;11.67;;
53040;SDS011;39326;42.650;23.248;2023-03-14T00:58:08;14.90;;;12.07;;
53040;SDS011;39326;42.650;23.248;2023-03-14T01:00:35;14.57;;;12.10;;
53040;SDS011;39326;42.650;23.248;2023-03-14T01:03:01;13.87;;;12.30;;
53040;SDS011;39326;42.650;23.248;2023-03-14T01:05:27;14.20;;;11.23;;
53040;SDS011;39326;42.650;23.248;2023-03-14T01:07:53;13.67;;;11.37;;
53040;SDS011;39326;42.650;23.248;2023-03-14T01:10:18;12.40;;;11.10;;
53040;SDS011;39326;42.650;23.248;2023-03-14T01:12:44;14.93;;;11.37;;
53040;SDS011;39326;42.650;23.248;2023-03-14T01:15:09;14.00;;;11.30;;
53040;SDS011;39326;42.650;23.248;2023-03-14T01:17:35;11.70;;;10.40;;
53040;SDS011;39326;42.650;23.248;2023-03-14T01:20:03;15.03;;;11.30;;
53040;SDS011;39326;42.650;23.248;2023-03-14T01:22:29;13.50;;;10.53;;
53040;SDS011;39326;42.650;23.248;2023-03-14T01:24:55;10.63;;;9.53;;
53040;SDS011;39326;42.650;23.248;2023-03-14T01:27:20;11.67;;;10.07;;
53040;SDS011;39326;42.650;23.248;2023-03-14T01:29:46;11.67;;;10.40;;
53040;SDS011;39326;42.650;23.248;2023-03-14T01:32:12;9.50;;;7.47;;
53040;SDS011;39326;42.650;23.248;2023-03-14T01:34:37;8.73;;;7.53;;
53040;SDS011;39326;42.650;23.248;2023-03-14T01:37:03;8.50;;;7.70;;
53040;SDS011;39326;42.650;23.248;2023-03-14T01:39:28;8.00;;;7.20;;
53040;SDS011;39326;42.650;23.248;2023-03-14T01:41:54;7.33;;;6.63;;
53040;SDS011;39326;42.650;23.248;2023-03-14T01:44:19;7.17;;;6.40;;
53040;SDS011;39326;42.650;23.248;2023-03-14T01:46:45;6.93;;;6.27;;
53040;SDS011;39326;42.650;23.248;2023-03-14T01:52:05;9.13;;;8.10;;
53040;SDS011;39326;42.650;23.248;2023-03-14T01:54:46;8.70;;;7.87;;
53040;SDS011;39326;42.650;23.248;2023-03-14T01:59:59;8.10;;;7.23;;
53040;SDS011;39326;42.650;23.248;2023-03-14T02:02:36;8.00;;;7.20;;
53040;SDS011;39326;42.650;23.248;2023-03-14T02:05:02;8.53;;;7.33;;
53040;SDS011;39326;42.650;23.248;2023-03-14T02:07:48;8.93;;;7.80;;
53040;SDS011;39326;42.650;23.248;2023-03-14T02:10:17;9.77;;;8.30;;
53040;SDS011;39326;42.650;23.248;2023-03-14T02:12:45;11.37;;;8.80;;
53040;SDS011;39326;42.650;23.248;2023-03-14T02:15:12;9.40;;;8.37;;
53040;SDS011;39326;42.650;23.248;2023-03-14T02:17:38;9.33;;;8.07;;
53040;SDS011;39326;42.650;23.248;2023-03-14T02:22:38;8.87;;;7.97;;
53040;SDS011;39326;42.650;23.248;2023-03-14T02:28:03;9.03;;;8.13;;
53040;SDS011;39326;42.650;23.248;2023-03-14T02:30:29;9.97;;;8.77;;
53040;SDS011;39326;42.650;23.248;2023-03-14T02:32:58;10.83;;;9.70;;
53040;SDS011;39326;42.650;23.248;2023-03-14T02:35:27;9.97;;;8.97;;
53040;SDS011;39326;42.650;23.248;2023-03-14T02:38:00;9.17;;;8.13;;
53040;SDS011;39326;42.650;23.248;2023-03-14T02:40:29;10.87;;;9.10;;
53040;SDS011;39326;42.650;23.248;2023-03-14T02:42:54;9.50;;;8.10;;
53040;SDS011;39326;42.650;23.248;2023-03-14T02:47:57;8.63;;;7.73;;
53040;SDS011;39326;42.650;23.248;2023-03-14T02:50:29;9.47;;;8.00;;
53040;SDS011;39326;42.650;23.248;2023-03-14T02:52:58;10.00;;;8.47;;
53040;SDS011;39326;42.650;23.248;2023-03-14T02:55:24;10.20;;;8.20;;
53040;SDS011;39326;42.650;23.248;2023-03-14T02:57:51;10.60;;;8.47;;
53040;SDS011;39326;42.650;23.248;2023-03-14T03:00:17;12.63;;;8.33;;
53040;SDS011;39326;42.650;23.248;2023-03-14T03:02:42;12.07;;;8.47;;
53040;SDS011;39326;42.650;23.248;2023-03-14T03:05:08;12.70;;;8.90;;
53040;SDS011;39326;42.650;23.248;2023-03-14T03:07:33;12.27;;;10.97;;
53040;SDS011;39326;42.650;23.248;2023-03-14T03:09:59;13.57;;;10.17;;
53040;SDS011;39326;42.650;23.248;2023-03-14T03:12:24;12.77;;;9.87;;
53040;SDS011;39326;42.650;23.248;2023-03-14T03:14:50;13.23;;;9.73;;
53040;SDS011;39326;42.650;23.248;2023-03-14T03:17:15;9.57;;;8.53;;
53040;SDS011;39326;42.650;23.248;2023-03-14T03:19:41;11.00;;;8.33;;
53040;SDS011;39326;42.650;23.248;2023-03-14T03:22:06;7.87;;;7.07;;
53040;SDS011;39326;42.650;23.248;2023-03-14T03:24:32;6.83;;;5.57;;
53040;SDS011;39326;42.650;23.248;2023-03-14T03:26:58;6.67;;;5.90;;
53040;SDS011;39326;42.650;23.248;2023-03-14T03:29:23;6.07;;;5.43;;
53040;SDS011;39326;42.650;23.248;2023-03-14T03:31:48;7.43;;;5.57;;
53040;SDS011;39326;42.650;23.248;2023-03-14T03:34:14;6.77;;;5.30;;
53040;SDS011;39326;42.650;23.248;2023-03-14T03:36:40;5.93;;;5.13;;
53040;SDS011;39326;42.650;23.248;2023-03-14T03:39:05;6.93;;;6.13;;
53040;SDS011;39326;42.650;23.248;2023-03-14T03:41:31;5.93;;;5.33;;
53040;SDS011;39326;42.650;23.248;2023-03-14T03:43:57;5.80;;;5.20;;
53040;SDS011;39326;42.650;23.248;2023-03-14T03:46:22;6.33;;;5.50;;
53040;SDS011;39326;42.650;23.248;2023-03-14T03:48:54;7.97;;;5.80;;
53040;SDS011;39326;42.650;23.248;2023-03-14T03:51:20;7.03;;;6.33;;
53040;SDS011;39326;42.650;23.248;2023-03-14T03:53:45;6.53;;;5.80;;
53040;SDS011;39326;42.650;23.248;2023-03-14T03:56:11;8.63;;;6.80;;
53040;SDS011;39326;42.650;23.248;2023-03-14T03:58:36;9.57;;;6.50;;
53040;SDS011;39326;42.650;23.248;2023-03-14T04:01:03;8.83;;;6.73;;
53040;SDS011;39326;42.650;23.248;2023-03-14T04:03:31;8.60;;;5.97;;
53040;SDS011;39326;42.650;23.248;2023-03-14T04:06:05;6.57;;;5.97;;
53040;SDS011;39326;42.650;23.248;2023-03-14T04:08:35;7.43;;;6.20;;
53040;SDS011;39326;42.650;23.248;2023-03-14T04:11:01;7.47;;;6.60;;
53040;SDS011;39326;42.650;23.248;2023-03-14T04:13:27;7.73;;;6.93;;
53040;SDS011;39326;42.650;23.248;2023-03-14T04:15:53;9.87;;;7.10;;
53040;SDS011;39326;42.650;23.248;2023-03-14T04:18:20;7.87;;;6.13;;
53040;SDS011;39326;42.650;23.248;2023-03-14T04:20:46;9.83;;;6.37;;
53040;SDS011;39326;42.650;23.248;2023-03-14T04:23:16;7.40;;;6.50;;
53040;SDS011;39326;42.650;23.248;2023-03-14T04:25:41;8.57;;;7.43;;
53040;SDS011;39326;42.650;23.248;2023-03-14T04:28:07;7.43;;;6.30;;
53040;SDS011;39326;42.650;23.248;2023-03-14T04:30:32;9.57;;;6.73;;
53040;SDS011;39326;42.650;23.248;2023-03-14T04:32:58;6.87;;;6.13;;
53040;SDS011;39326;42.650;23.248;2023-03-14T04:35:23;7.40;;;6.03;;
53040;SDS011;39326;42.650;23.248;2023-03-14T04:37:49;6.03;;;5.40;;
53040;SDS011;39326;42.650;23.248;2023-03-14T04:40:15;6.90;;;5.73;;
53040;SDS011;39326;42.650;23.248;2023-03-14T04:42:40;6.97;;;5.23;;
53040;SDS011;39326;42.650;23.248;2023-03-14T04:45:06;5.70;;;5.10;;
53040;SDS011;39326;42.650;23.248;2023-03-14T04:47:33;6.93;;;4.53;;
53040;SDS011;39326;42.650;23.248;2023-03-14T04:49:58;5.17;;;4.57;;
53040;SDS011;39326;42.650;23.248;2023-03-14T04:52:24;8.23;;;5.07;;
53040;SDS011;39326;42.650;23.248;2023-03-14T04:54:49;5.13;;;4.37;;
53040;SDS011;39326;42.650;23.248;2023-03-14T04:57:15;5.00;;;4.10;;
53040;SDS011;39326;42.650;23.248;2023-03-14T04:59:40;4.87;;;3.97;;
53040;SDS011;39326;42.650;23.248;2023-03-14T05:02:05;5.27;;;4.07;;
53040;SDS011;39326;42.650;23.248;2023-03-14T05:04:31;4.20;;;3.80;;
53040;SDS011;39326;42.650;23.248;2023-03-14T05:06:58;4.40;;;3.97;;
53040;SDS011;39326;42.650;23.248;2023-03-14T05:09:24;6.27;;;4.47;;
53040;SDS011;39326;42.650;23.248;2023-03-14T05:11:50;7.27;;;4.27;;
53040;SDS011;39326;42.650;23.248;2023-03-14T05:14:15;7.43;;;4.77;;
53040;SDS011;39326;42.650;23.248;2023-03-14T05:16:41;5.57;;;4.40;;
53040;SDS011;39326;42.650;23.248;2023-03-14T05:21:35;8.50;;;5.70;;
53040;SDS011;39326;42.650;23.248;2023-03-14T05:24:00;6.80;;;5.50;;
53040;SDS011;39326;42.650;23.248;2023-03-14T05:26:26;11.07;;;6.87;;
53040;SDS011;39326;42.650;23.248;2023-03-14T05:28:51;8.70;;;6.33;;
53040;SDS011;39326;42.650;23.248;2023-03-14T05:31:16;10.57;;;7.97;;
53040;SDS011;39326;42.650;23.248;2023-03-14T05:33:42;8.67;;;7.43;;
53040;SDS011;39326;42.650;23.248;2023-03-14T05:36:07;10.23;;;7.73;;
53040;SDS011;39326;42.650;23.248;2023-03-14T05:38:33;10.53;;;8.57;;
53040;SDS011;39326;42.650;23.248;2023-03-14T05:40:58;9.20;;;8.20;;
53040;SDS011;39326;42.650;23.248;2023-03-14T05:43:24;10.00;;;9.00;;
53040;SDS011;39326;42.650;23.248;2023-03-14T05:45:49;11.80;;;9.07;;
53040;SDS011;39326;42.650;23.248;2023-03-14T05:48:15;11.00;;;8.87;;
53040;SDS011;39326;42.650;23.248;2023-03-14T05:50:41;11.03;;;9.80;;
53040;SDS011;39326;42.650;23.248;2023-03-14T05:53:07;10.27;;;9.27;;
53040;SDS011;39326;42.650;23.248;2023-03-14T05:55:32;10.80;;;9.13;;
53040;SDS011;39326;42.650;23.248;2023-03-14T05:57:58;10.83;;;9.70;;
53040;SDS011;39326;42.650;23.248;2023-03-14T06:00:23;11.63;;;10.27;;
53040;SDS011;39326;42.650;23.248;2023-03-14T06:02:49;11.63;;;10.30;;
53040;SDS011;39326;42.650;23.248;2023-03-14T06:05:14;14.83;;;12.70;;
53040;SDS011;39326;42.650;23.248;2023-03-14T06:07:39;15.23;;;11.50;;
53040;SDS011;39326;42.650;23.248;2023-03-14T06:10:05;15.03;;;13.43;;
53040;SDS011;39326;42.650;23.248;2023-03-14T06:12:31;20.83;;;16.77;;
53040;SDS011;39326;42.650;23.248;2023-03-14T06:14:57;22.03;;;16.40;;
53040;SDS011;39326;42.650;23.248;2023-03-14T06:17:22;23.33;;;17.07;;
53040;SDS011;39326;42.650;23.248;2023-03-14T06:19:48;18.53;;;14.87;;
53040;SDS011;39326;42.650;23.248;2023-03-14T06:22:13;17.67;;;15.70;;
53040;SDS011;39326;42.650;23.248;2023-03-14T06:24:39;22.70;;;15.27;;
53040;SDS011;39326;42.650;23.248;2023-03-14T06:27:04;21.33;;;16.60;;
53040;SDS011;39326;42.650;23.248;2023-03-14T06:29:30;22.37;;;17.17;;
53040;SDS011;39326;42.650;23.248;2023-03-14T06:31:56;18.27;;;16.23;;
53040;SDS011;39326;42.650;23.248;2023-03-14T06:34:21;22.10;;;16.93;;
53040;SDS011;39326;42.650;23.248;2023-03-14T06:36:47;23.17;;;16.63;;
53040;SDS011;39326;42.650;23.248;2023-03-14T06:39:12;21.67;;;16.43;;
53040;SDS011;39326;42.650;23.248;2023-03-14T06:41:38;17.63;;;14.43;;
53040;SDS011;39326;42.650;23.248;2023-03-14T06:44:03;20.10;;;16.67;;
53040;SDS011;39326;42.650;23.248;2023-03-14T06:46:29;19.80;;;17.07;;
53040;SDS011;39326;42.650;23.248;2023-03-14T06:48:54;20.13;;;16.67;;
53040;SDS011;39326;42.650;23.248;2023-03-14T06:51:20;17.70;;;15.87;;
53040;SDS011;39326;42.650;23.248;2023-03-14T06:53:45;17.07;;;14.00;;
53040;SDS011;39326;42.650;23.248;2023-03-14T06:56:11;18.27;;;14.30;;
53040;SDS011;39326;42.650;23.248;2023-03-14T06:58:36;19.77;;;15.57;;
53040;SDS011;39326;42.650;23.248;2023-03-14T07:01:02;21.37;;;16.57;;
53040;SDS011;39326;42.650;23.248;2023-03-14T07:03:28;18.83;;;16.77;;
53040;SDS011;39326;42.650;23.248;2023-03-14T07:05:53;15.83;;;13.90;;
53040;SDS011;39326;42.650;23.248;2023-03-14T07:08:19;18.60;;;15.23;;
53040;SDS011;39326;42.650;23.248;2023-03-14T07:10:44;19.73;;;17.20;;
53040;SDS011;39326;42.650;23.248;2023-03-14T07:13:09;20.13;;;15.93;;
53040;SDS011;39326;42.650;23.248;2023-03-14T07:15:35;17.57;;;14.67;;
53040;SDS011;39326;42.650;23.248;2023-03-14T07:18:00;19.93;;;14.83;;
53040;SDS011;39326;42.650;23.248;2023-03-14T07:20:26;20.17;;;15.60;;
53040;SDS011;39326;42.650;23.248;2023-03-14T07:22:51;18.27;;;14.50;;
53040;SDS011;39326;42.650;23.248;2023-03-14T07:25:17;21.37;;;16.30;;
53040;SDS011;39326;42.650;23.248;2023-03-14T07:27:43;15.73;;;14.03;;
53040;SDS011;39326;42.650;23.248;2023-03-14T07:30:10;16.50;;;14.20;;
53040;SDS011;39326;42.650;23.248;2023-03-14T07:32:35;20.03;;;15.47;;
53040;SDS011;39326;42.650;23.248;2023-03-14T07:35:01;16.83;;;13.80;;
53040;SDS011;39326;42.650;23.248;2023-03-14T07:37:26;15.20;;;13.03;;
53040;SDS011;39326;42.650;23.248;2023-03-14T07:39:52;17.60;;;14.00;;
53040;SDS011;39326;42.650;23.248;2023-03-14T07:42:17;15.87;;;14.27;;
53040;SDS011;39326;42.650;23.248;2023-03-14T07:44:42;17.77;;;12.80;;
53040;SDS011;39326;42.650;23.248;2023-03-14T07:47:08;16.97;;;13.17;;
53040;SDS011;39326;42.650;23.248;2023-03-14T07:49:35;16.87;;;13.17;;
53040;SDS011;39326;42.650;23.248;2023-03-14T07:52:01;15.07;;;13.00;;
53040;SDS011;39326;42.650;23.248;2023-03-14T07:54:26;14.13;;;11.90;;
53040;SDS011;39326;42.650;23.248;2023-03-14T07:56:52;16.60;;;12.37;;
53040;SDS011;39326;42.650;23.248;2023-03-14T07:59:17;13.70;;;12.30;;
53040;SDS011;39326;42.650;23.248;2023-03-14T08:01:43;16.27;;;12.43;;
53040;SDS011;39326;42.650;23.248;2023-03-14T08:04:09;16.03;;;12.50;;
53040;SDS011;39326;42.650;23.248;2023-03-14T08:06:35;15.27;;;12.53;;
53040;SDS011;39326;42.650;23.248;2023-03-14T08:09:01;14.47;;;12.93;;
53040;SDS011;39326;42.650;23.248;2023-03-14T08:11:27;13.50;;;12.20;;
53040;SDS011;39326;42.650;23.248;2023-03-14T10:38:32;10.60;;;9.57;;
53040;SDS011;39326;42.650;23.248;2023-03-14T10:41:00;11.15;;;10.13;;
53040;SDS011;39326;42.650;23.248;2023-03-14T10:43:31;11.97;;;10.13;;
53040;SDS011;39326;42.650;23.248;2023-03-14T10:46:00;11.00;;;9.93;;
53040;SDS011;39326;42.650;23.248;2023-03-14T10:48:37;13.00;;;10.40;;
53040;SDS011;39326;42.650;23.248;2023-03-14T10:53:43;12.30;;;9.40;;
53040;SDS011;39326;42.650;23.248;2023-03-14T10:56:14;11.33;;;10.13;;
53040;SDS011;39326;42.650;23.248;2023-03-14T10:58:43;11.77;;;10.30;;
53040;SDS011;39326;42.650;23.248;2023-03-14T11:07:12;12.60;;;9.68;;
53040;SDS011;39326;42.650;23.248;2023-03-14T11:09:48;12.47;;;10.27;;
53040;SDS011;39326;42.650;23.248;2023-03-14T11:12:32;11.70;;;10.10;;
53040;SDS011;39326;42.650;23.248;2023-03-14T11:15:02;14.10;;;10.50;;
53040;SDS011;39326;42.650;23.248;2023-03-14T11:17:37;13.27;;;9.90;;
53040;SDS011;39326;42.650;23.248;2023-03-14T11:23:01;11.43;;;9.20;;
53040;SDS011;39326;42.650;23.248;2023-03-14T11:31:14;10.45;;;8.27;;
53040;SDS011;39326;42.650;23.248;2023-03-14T11:33:47;11.50;;;9.32;;
53040;SDS011;39326;42.650;23.248;2023-03-14T11:36:17;12.77;;;8.40;;
53040;SDS011;39326;42.650;23.248;2023-03-14T11:38:47;8.32;;;7.38;;
53040;SDS011;39326;42.650;23.248;2023-03-14T11:41:25;9.00;;;8.13;;
53040;SDS011;39326;42.650;23.248;2023-03-14T11:43:56;11.38;;;8.00;;
53040;SDS011;39326;42.650;23.248;2023-03-14T11:51:36;10.43;;;7.90;;
53040;SDS011;39326;42.650;23.248;2023-03-14T11:59:17;7.68;;;6.85;;
53040;SDS011;39326;42.650;23.248;2023-03-14T12:01:54;7.43;;;6.70;;
53040;SDS011;39326;42.650;23.248;2023-03-14T12:07:12;10.75;;;7.55;;
53040;SDS011;39326;42.650;23.248;2023-03-14T12:09:44;8.20;;;6.60;;
53040;SDS011;39326;42.650;23.248;2023-03-14T12:12:12;8.18;;;6.25;;
53040;SDS011;39326;42.650;23.248;2023-03-14T12:14:56;7.88;;;5.57;;
53040;SDS011;39326;42.650;23.248;2023-03-14T12:17:25;6.18;;;5.57;;
53040;SDS011;39326;42.650;23.248;2023-03-14T12:22:56;6.25;;;5.70;;
53040;SDS011;39326;42.650;23.248;2023-03-14T12:25:32;6.95;;;5.85;;
53040;SDS011;39326;42.650;23.248;2023-03-14T12:35:47;5.60;;;5.10;;
53040;SDS011;39326;42.650;23.248;2023-03-14T12:43:30;6.13;;;4.50;;
53040;SDS011;39326;42.650;23.248;2023-03-14T12:48:43;4.35;;;3.95;;
53040;SDS011;39326;42.650;23.248;2023-03-14T12:51:15;5.55;;;3.85;;
53040;SDS011;39326;42.650;23.248;2023-03-14T12:59:38;7.57;;;4.10;;
53040;SDS011;39326;42.650;23.248;2023-03-14T13:05:14;6.35;;;4.63;;
53040;SDS011;39326;42.650;23.248;2023-03-14T13:13:23;4.07;;;3.67;;
53040;SDS011;39326;42.650;23.248;2023-03-14T13:15:31;4.53;;;3.35;;
53040;SDS011;39326;42.650;23.248;2023-03-14T13:17:59;3.60;;;3.03;;
53040;SDS011;39326;42.650;23.248;2023-03-14T13:20:29;4.30;;;3.40;;
53040;SDS011;39326;42.650;23.248;2023-03-14T13:22:57;3.63;;;3.00;;
53040;SDS011;39326;42.650;23.248;2023-03-14T13:25:22;4.90;;;3.28;;
53040;SDS011;39326;42.650;23.248;2023-03-14T13:27:49;4.88;;;3.35;;
53040;SDS011;39326;42.650;23.248;2023-03-14T13:30:19;3.50;;;2.70;;
53040;SDS011;39326;42.650;23.248;2023-03-14T13:33:03;6.55;;;3.00;;
53040;SDS011;39326;42.650;23.248;2023-03-14T13:35:37;6.40;;;3.92;;
53040;SDS011;39326;42.650;23.248;2023-03-14T13:38:13;3.65;;;2.85;;
53040;SDS011;39326;42.650;23.248;2023-03-14T13:40:42;4.97;;;3.38;;
53040;SDS011;39326;42.650;23.248;2023-03-14T13:48:33;4.13;;;3.30;;
53040;SDS011;39326;42.650;23.248;2023-03-14T13:51:10;4.88;;;2.75;;
53040;SDS011;39326;42.650;23.248;2023-03-14T13:53:45;4.90;;;3.05;;
53040;SDS011;39326;42.650;23.248;2023-03-14T13:56:15;4.85;;;3.40;;
53040;SDS011;39326;42.650;23.248;2023-03-14T13:58:43;4.43;;;2.90;;
53040;SDS011;39326;42.650;23.248;2023-03-14T14:01:19;3.83;;;3.00;;
53040;SDS011;39326;42.650;23.248;2023-03-14T14:03:51;5.50;;;2.78;;
53040;SDS011;39326;42.650;23.248;2023-03-14T14:06:30;4.45;;;3.30;;
53040;SDS011;39326;42.650;23.248;2023-03-14T14:08:58;5.38;;;3.08;;
53040;SDS011;39326;42.650;23.248;2023-03-14T14:13:57;3.05;;;2.75;;
53040;SDS011;39326;42.650;23.248;2023-03-14T14:16:24;4.03;;;2.65;;
53040;SDS011;39326;42.650;23.248;2023-03-14T14:18:52;5.45;;;2.90;;
53040;SDS011;39326;42.650;23.248;2023-03-14T14:21:21;3.13;;;2.72;;
53040;SDS011;39326;42.650;23.248;2023-03-14T14:23:48;4.57;;;2.65;;
53040;SDS011;39326;42.650;23.248;2023-03-14T14:26:18;16.95;;;3.88;;
53040;SDS011;39326;42.650;23.248;2023-03-14T14:28:44;6.47;;;2.90;;
53040;SDS011;39326;42.650;23.248;2023-03-14T14:33:43;4.45;;;2.70;;
53040;SDS011;39326;42.650;23.248;2023-03-14T14:36:20;4.70;;;2.65;;
53040;SDS011;39326;42.650;23.248;2023-03-14T14:39:37;4.63;;;2.50;;
53040;SDS011;39326;42.650;23.248;2023-03-14T14:41:39;4.15;;;2.50;;
53040;SDS011;39326;42.650;23.248;2023-03-14T14:44:06;2.67;;;2.30;;
53040;SDS011;39326;42.650;23.248;2023-03-14T14:46:33;4.47;;;2.40;;
53040;SDS011;39326;42.650;23.248;2023-03-14T14:49:14;2.83;;;2.10;;
53040;SDS011;39326;42.650;23.248;2023-03-14T14:51:44;4.82;;;2.22;;
53040;SDS011;39326;42.650;23.248;2023-03-14T14:54:17;4.80;;;2.85;;
53040;SDS011;39326;42.650;23.248;2023-03-14T14:56:48;5.65;;;2.80;;
53040;SDS011;39326;42.650;23.248;2023-03-14T14:59:25;4.65;;;2.60;;
53040;SDS011;39326;42.650;23.248;2023-03-14T15:01:57;2.33;;;2.10;;
53040;SDS011;39326;42.650;23.248;2023-03-14T15:04:25;5.70;;;2.65;;
53040;SDS011;39326;42.650;23.248;2023-03-14T15:06:51;5.57;;;2.40;;
53040;SDS011;39326;42.650;23.248;2023-03-14T15:09:17;2.45;;;1.98;;
53040;SDS011;39326;42.650;23.248;2023-03-14T15:11:45;5.78;;;2.72;;
53040;SDS011;39326;42.650;23.248;2023-03-14T15:14:11;3.75;;;2.40;;
53040;SDS011;39326;42.650;23.248;2023-03-14T15:16:36;4.55;;;2.95;;
53040;SDS011;39326;42.650;23.248;2023-03-14T15:19:08;5.75;;;3.25;;
53040;SDS011;39326;42.650;23.248;2023-03-14T15:21:36;5.20;;;3.22;;
53040;SDS011;39326;42.650;23.248;2023-03-14T15:24:03;7.20;;;3.17;;
53040;SDS011;39326;42.650;23.248;2023-03-14T15:26:30;3.65;;;2.85;;
53040;SDS011;39326;42.650;23.248;2023-03-14T15:28:55;5.25;;;3.30;;
53040;SDS011;39326;42.650;23.248;2023-03-14T15:31:21;7.13;;;3.15;;
53040;SDS011;39326;42.650;23.248;2023-03-14T15:33:46;8.77;;;3.90;;
53040;SDS011;39326;42.650;23.248;2023-03-14T15:38:44;4.35;;;3.30;;
53040;SDS011;39326;42.650;23.248;2023-03-14T15:41:09;4.32;;;3.70;;
53040;SDS011;39326;42.650;23.248;2023-03-14T15:43:34;6.80;;;3.33;;
53040;SDS011;39326;42.650;23.248;2023-03-14T15:46:00;8.68;;;5.55;;
53040;SDS011;39326;42.650;23.248;2023-03-14T15:48:25;9.40;;;5.80;;
53040;SDS011;39326;42.650;23.248;2023-03-14T15:50:51;6.55;;;4.38;;
53040;SDS011;39326;42.650;23.248;2023-03-14T15:53:16;5.05;;;3.58;;
53040;SDS011;39326;42.650;23.248;2023-03-14T15:55:42;5.78;;;3.58;;
53040;SDS011;39326;42.650;23.248;2023-03-14T15:58:09;4.43;;;3.38;;
53040;SDS011;39326;42.650;23.248;2023-03-14T16:00:41;6.15;;;3.08;;
53040;SDS011;39326;42.650;23.248;2023-03-14T16:03:07;3.95;;;3.00;;
53040;SDS011;39326;42.650;23.248;2023-03-14T16:05:32;3.97;;;3.17;;
53040;SDS011;39326;42.650;23.248;2023-03-14T16:07:57;5.53;;;3.17;;
53040;SDS011;39326;42.650;23.248;2023-03-14T16:10:23;4.80;;;3.22;;
53040;SDS011;39326;42.650;23.248;2023-03-14T16:12:48;10.40;;;4.05;;
53040;SDS011;39326;42.650;23.248;2023-03-14T16:15:14;6.75;;;3.53;;
53040;SDS011;39326;42.650;23.248;2023-03-14T16:17:39;5.50;;;3.45;;
53040;SDS011;39326;42.650;23.248;2023-03-14T16:20:07;10.52;;;4.60;;
53040;SDS011;39326;42.650;23.248;2023-03-14T16:22:33;6.63;;;5.03;;
53040;SDS011;39326;42.650;23.248;2023-03-14T16:25:02;7.47;;;4.20;;
53040;SDS011;39326;42.650;23.248;2023-03-14T16:27:28;15.60;;;13.63;;
53040;SDS011;39326;42.650;23.248;2023-03-14T16:29:55;24.73;;;22.35;;
53040;SDS011;39326;42.650;23.248;2023-03-14T16:32:21;11.52;;;9.30;;
53040;SDS011;39326;42.650;23.248;2023-03-14T16:34:47;4.67;;;3.63;;
53040;SDS011;39326;42.650;23.248;2023-03-14T16:37:12;5.60;;;3.72;;
53040;SDS011;39326;42.650;23.248;2023-03-14T16:39:38;3.97;;;3.27;;
53040;SDS011;39326;42.650;23.248;2023-03-14T16:42:03;3.63;;;3.30;;
53040;SDS011;39326;42.650;23.248;2023-03-14T16:44:29;4.93;;;3.47;;
53040;SDS011;39326;42.650;23.248;2023-03-14T16:46:55;5.33;;;3.50;;
53040;SDS011;39326;42.650;23.248;2023-03-14T16:49:21;6.07;;;4.10;;
53040;SDS011;39326;42.650;23.248;2023-03-14T16:51:47;5.87;;;3.93;;
53040;SDS011;39326;42.650;23.248;2023-03-14T16:54:12;4.60;;;3.40;;
53040;SDS011;39326;42.650;23.248;2023-03-14T16:56:37;6.17;;;3.10;;
53040;SDS011;39326;42.650;23.248;2023-03-14T16:59:03;5.47;;;3.47;;
53040;SDS011;39326;42.650;23.248;2023-03-14T17:01:28;3.43;;;3.10;;
53040;SDS011;39326;42.650;23.248;2023-03-14T17:03:54;5.37;;;3.60;;
53040;SDS011;39326;42.650;23.248;2023-03-14T17:06:20;5.57;;;3.00;;
53040;SDS011;39326;42.650;23.248;2023-03-14T17:08:51;6.70;;;3.20;;
53040;SDS011;39326;42.650;23.248;2023-03-14T17:11:17;6.03;;;3.50;;
53040;SDS011;39326;42.650;23.248;2023-03-14T17:13:42;4.90;;;3.60;;
53040;SDS011;39326;42.650;23.248;2023-03-14T17:16:08;4.32;;;3.00;;
53040;SDS011;39326;42.650;23.248;2023-03-14T17:18:34;5.13;;;2.93;;
53040;SDS011;39326;42.650;23.248;2023-03-14T17:21:01;4.57;;;2.90;;
53040;SDS011;39326;42.650;23.248;2023-03-14T17:23:27;7.70;;;3.90;;
53040;SDS011;39326;42.650;23.248;2023-03-14T17:25:55;5.60;;;3.40;;
53040;SDS011;39326;42.650;23.248;2023-03-14T17:28:21;6.70;;;3.13;;
53040;SDS011;39326;42.650;23.248;2023-03-14T17:30:48;3.63;;;3.30;;
53040;SDS011;39326;42.650;23.248;2023-03-14T17:33:14;4.03;;;3.17;;
53040;SDS011;39326;42.650;23.248;2023-03-14T17:35:41;6.07;;;3.13;;
53040;SDS011;39326;42.650;23.248;2023-03-14T17:38:07;8.07;;;3.97;;
53040;SDS011;39326;42.650;23.248;2023-03-14T17:40:32;9.93;;;3.67;;
53040;SDS011;39326;42.650;23.248;2023-03-14T17:42:58;8.03;;;6.33;;
53040;SDS011;39326;42.650;23.248;2023-03-14T17:45:23;7.37;;;6.43;;
53040;SDS011;39326;42.650;23.248;2023-03-14T17:47:49;7.37;;;5.80;;
53040;SDS011;39326;42.650;23.248;2023-03-14T17:50:14;9.20;;;7.17;;
53040;SDS011;39326;42.650;23.248;2023-03-14T17:52:40;6.37;;;5.77;;
53040;SDS011;39326;42.650;23.248;2023-03-14T17:55:06;9.47;;;4.67;;
53040;SDS011;39326;42.650;23.248;2023-03-14T17:57:32;7.90;;;4.07;;
53040;SDS011;39326;42.650;23.248;2023-03-14T18:00:02;6.63;;;3.60;;
53040;SDS011;39326;42.650;23.248;2023-03-14T18:02:29;5.10;;;3.90;;
53040;SDS011;39326;42.650;23.248;2023-03-14T18:04:54;7.43;;;4.27;;
53040;SDS011;39326;42.650;23.248;2023-03-14T18:07:19;7.50;;;4.97;;
53040;SDS011;39326;42.650;23.248;2023-03-14T18:09:45;6.60;;;4.83;;
53040;SDS011;39326;42.650;23.248;2023-03-14T18:12:11;7.17;;;3.90;;
53040;SDS011;39326;42.650;23.248;2023-03-14T18:14:36;4.87;;;3.60;;
53040;SDS011;39326;42.650;23.248;2023-03-14T18:17:03;6.03;;;3.53;;
53040;SDS011;39326;42.650;23.248;2023-03-14T18:19:29;5.83;;;3.77;;
53040;SDS011;39326;42.650;23.248;2023-03-14T18:21:56;5.73;;;3.93;;
53040;SDS011;39326;42.650;23.248;2023-03-14T18:24:21;9.53;;;4.77;;